Terminal Aerodrome Forecast
Issued by NWS

Home | Current Version | Previous Version | Text Only | Print | Product List | Glossary On
Versions: 1 2 3 4 5 6 7 8 9 10 11 12 13 14 15 16 17 18 19 20 21 22 23 24
000
FTUS43 KDMX 231733
TAFOTM
TAF
KOTM 231733Z 2318/2418 17009KT P6SM SCT150 SCT250
     FM232100 17011KT P6SM VCTS SCT040CB BKN080
     FM232300 18010KT P6SM SCT120
     FM241600 28007KT P6SM SCT250=

USA.gov is the U.S. government's official web portal to all federal, state and local government web resources and services.